createdAt,value
2023-05-07T00:00:22.758Z,60.94
2023-05-07T00:01:57.953Z,57.96
2023-05-07T00:03:29.642Z,57.13
2023-05-07T00:04:51.578Z,58.30
2023-05-07T00:06:13.657Z,59.88
2023-05-07T00:07:54.788Z,61.49
2023-05-07T00:09:26.362Z,63.58
2023-05-07T00:11:11.535Z,64.43
2023-05-07T00:12:34.750Z,62.59
2023-05-07T00:14:08.226Z,60.01
2023-05-07T00:15:32.184Z,57.80
2023-05-07T00:17:05.700Z,56.97
2023-05-07T00:18:39.088Z,58.21
2023-05-07T00:20:10.310Z,60.01
2023-05-07T00:21:47.364Z,61.62
2023-05-07T00:23:24.128Z,64.05
2023-05-07T00:24:59.672Z,64.86
2023-05-07T00:26:33.186Z,62.24
2023-05-07T00:28:08.234Z,59.76
2023-05-07T00:29:30.318Z,57.20
2023-05-07T00:31:04.113Z,57.24
2023-05-07T00:32:37.843Z,58.62
2023-05-07T00:34:18.967Z,60.54
2023-05-07T00:35:52.651Z,63.05
2023-05-07T00:37:37.834Z,65.19
2023-05-07T00:39:23.346Z,63.51
2023-05-07T00:40:47.059Z,60.94
2023-05-07T00:42:09.274Z,58.20
2023-05-07T00:43:33.480Z,57.13
2023-05-07T00:44:56.209Z,57.91
2023-05-07T00:46:18.234Z,59.42
2023-05-07T00:48:07.704Z,61.12
2023-05-07T00:49:43.566Z,64.08
2023-05-07T00:51:12.679Z,65.22
2023-05-07T00:52:46.029Z,63.26
2023-05-07T00:54:12.557Z,60.50
2023-05-07T00:55:46.113Z,58.23
2023-05-07T00:57:17.332Z,57.16
2023-05-07T00:58:38.798Z,58.18
2023-05-07T01:00:10.439Z,59.89
2023-05-07T01:01:56.009Z,62.09
2023-05-07T01:03:29.402Z,64.06
2023-05-07T01:04:54.155Z,64.84
2023-05-07T01:06:35.160Z,62.60
2023-05-07T01:08:08.841Z,59.53
2023-05-07T01:09:58.742Z,57.24
2023-05-07T01:11:32.112Z,57.72
2023-05-07T01:13:05.583Z,59.50
2023-05-07T01:14:38.656Z,61.52
2023-05-07T01:16:12.403Z,63.69
2023-05-07T01:17:43.761Z,65.21
2023-05-07T01:19:30.028Z,63.04
2023-05-07T01:21:10.600Z,59.89
2023-05-07T01:22:47.326Z,57.52
2023-05-07T01:24:32.280Z,57.31
2023-05-07T01:26:17.364Z,59.26
2023-05-07T01:27:51.796Z,61.61
2023-05-07T01:29:26.722Z,63.57
2023-05-07T01:31:11.656Z,65.15
2023-05-07T01:32:47.536Z,63.20
2023-05-07T01:34:21.018Z,60.37
2023-05-07T01:36:02.010Z,57.75
2023-05-07T01:37:37.721Z,57.04
2023-05-07T01:39:06.585Z,58.61
2023-05-07T01:40:36.430Z,60.11
2023-05-07T01:42:17.626Z,61.78
2023-05-07T01:44:02.967Z,64.49
2023-05-07T01:45:38.890Z,64.90
2023-05-07T01:47:19.543Z,62.55
2023-05-07T01:48:46.885Z,59.78
2023-05-07T01:50:31.702Z,57.22
2023-05-07T01:52:12.263Z,57.58
2023-05-07T01:53:46.735Z,59.15
2023-05-07T01:55:16.265Z,60.87
2023-05-07T01:56:49.859Z,62.74
2023-05-07T01:58:23.003Z,64.96
2023-05-07T01:59:56.484Z,63.63
2023-05-07T02:01:28.034Z,61.16
2023-05-07T02:03:02.049Z,58.76
2023-05-07T02:04:44.898Z,56.80
2023-05-07T02:06:21.566Z,57.91
2023-05-07T02:07:57.616Z,59.90
2023-05-07T02:09:33.841Z,61.81
2023-05-07T02:11:15.639Z,64.02
2023-05-07T02:12:51.283Z,64.94
2023-05-07T02:14:16.442Z,62.52
2023-05-07T02:15:50.379Z,60.23
2023-05-07T02:17:12.416Z,57.54
2023-05-07T02:18:41.163Z,57.26
2023-05-07T02:20:14.570Z,58.52
2023-05-07T02:21:56.432Z,60.72
2023-05-07T02:23:41.860Z,62.81
2023-05-07T02:25:11.004Z,65.12
2023-05-07T02:26:58.143Z,63.92
2023-05-07T02:28:34.123Z,61.03
2023-05-07T02:30:09.576Z,58.95
2023-05-07T02:31:43.456Z,57.26
2023-05-07T02:33:19.059Z,57.49
2023-05-07T02:34:48.840Z,59.42
2023-05-07T02:36:29.665Z,61.45
2023-05-07T02:38:13.999Z,63.64
2023-05-07T02:39:47.671Z,64.62
2023-05-07T02:41:12.119Z,62.37
2023-05-07T02:42:38.350Z,60.11
2023-05-07T02:44:11.988Z,57.45
2023-05-07T02:45:44.717Z,56.99
2023-05-07T02:47:32.997Z,58.69
2023-05-07T02:48:56.675Z,60.66
2023-05-07T02:50:45.721Z,62.87
2023-05-07T02:52:31.228Z,64.49
2023-05-07T02:53:58.150Z,62.89
2023-05-07T02:55:31.330Z,60.28
2023-05-07T02:57:04.767Z,57.87
2023-05-07T02:58:49.689Z,57.27
2023-05-07T03:00:32.042Z,58.41
2023-05-07T03:02:08.361Z,60.66
2023-05-07T03:03:49.227Z,62.78
2023-05-07T03:05:21.435Z,64.76
2023-05-07T03:07:06.211Z,63.69
2023-05-07T03:08:50.911Z,60.91
2023-05-07T03:10:22.317Z,58.09
2023-05-07T03:11:51.346Z,56.82
2023-05-07T03:13:15.447Z,57.64
2023-05-07T03:14:48.694Z,59.91
2023-05-07T03:16:24.358Z,61.75
2023-05-07T03:18:09.522Z,63.90
2023-05-07T03:19:41.308Z,65.34
2023-05-07T03:21:05.740Z,63.05
2023-05-07T03:22:34.574Z,60.85
2023-05-07T03:23:57.164Z,58.58
2023-05-07T03:25:36.012Z,57.13
2023-05-07T03:27:11.661Z,58.20
2023-05-07T03:28:42.988Z,59.56
2023-05-07T03:30:19.900Z,61.53
2023-05-07T03:31:55.988Z,63.57
2023-05-07T03:33:20.561Z,64.74
2023-05-07T03:35:01.350Z,62.53
2023-05-07T03:36:39.216Z,59.78
2023-05-07T03:38:13.552Z,57.20
2023-05-07T03:39:51.241Z,57.08
2023-05-07T03:41:37.113Z,59.10
2023-05-07T03:43:10.732Z,61.55
2023-05-07T03:44:53.561Z,63.81
2023-05-07T03:46:23.417Z,65.07
2023-05-07T03:47:46.157Z,63.67
2023-05-07T03:49:10.755Z,61.46
2023-05-07T03:50:51.681Z,58.64
2023-05-07T03:52:26.656Z,56.92
2023-05-07T03:54:00.480Z,57.92
2023-05-07T03:55:36.801Z,59.66
2023-05-07T03:57:01.181Z,61.83
2023-05-07T03:58:35.548Z,64.53
2023-05-07T04:00:08.459Z,65.18
2023-05-07T04:01:42.982Z,62.89
2023-05-07T04:03:20.038Z,60.37
2023-05-07T04:04:53.196Z,57.69
2023-05-07T04:06:26.465Z,56.78
2023-05-07T04:07:52.810Z,58.32
2023-05-07T04:09:29.443Z,59.99
2023-05-07T04:11:05.034Z,61.77
2023-05-07T04:12:46.577Z,64.20
2023-05-07T04:14:23.251Z,64.58
2023-05-07T04:15:59.504Z,62.37
2023-05-07T04:17:26.277Z,59.42
2023-05-07T04:18:58.373Z,57.21
2023-05-07T04:20:43.618Z,57.50
2023-05-07T04:22:24.744Z,59.18
2023-05-07T04:24:00.845Z,61.79
2023-05-07T04:25:34.758Z,63.40
2023-05-07T04:27:14.300Z,65.19
2023-05-07T04:28:47.586Z,63.34
2023-05-07T04:30:12.643Z,60.72
2023-05-07T04:31:46.602Z,58.13
2023-05-07T04:33:18.511Z,56.96
2023-05-07T04:34:54.761Z,58.26
2023-05-07T04:36:16.716Z,59.93
2023-05-07T04:37:53.410Z,61.50
2023-05-07T04:39:38.682Z,64.16
2023-05-07T04:41:14.779Z,65.36
2023-05-07T04:42:56.386Z,62.82
2023-05-07T04:44:18.558Z,60.16
2023-05-07T04:45:54.021Z,57.85
2023-05-07T04:47:29.163Z,56.90
2023-05-07T04:49:03.002Z,58.60
2023-05-07T04:50:40.484Z,59.95
2023-05-07T04:52:14.073Z,62.39
2023-05-07T04:53:49.689Z,64.77
2023-05-07T04:55:13.743Z,64.77
2023-05-07T04:56:38.341Z,62.34
2023-05-07T04:58:02.310Z,59.83
2023-05-07T04:59:32.264Z,57.35
2023-05-07T05:00:57.471Z,56.79
2023-05-07T05:02:22.084Z,57.96
2023-05-07T05:04:03.191Z,59.90
2023-05-07T05:05:36.767Z,61.65
2023-05-07T05:07:09.927Z,63.62
2023-05-07T05:08:45.603Z,65.12
2023-05-07T05:10:15.454Z,63.46
2023-05-07T05:11:39.880Z,60.76
2023-05-07T05:13:15.593Z,58.43
2023-05-07T05:14:37.781Z,56.61
2023-05-07T05:15:59.763Z,57.63
2023-05-07T05:17:35.880Z,59.20
2023-05-07T05:19:01.036Z,61.22
2023-05-07T05:20:22.732Z,63.12
2023-05-07T05:22:07.965Z,65.40
2023-05-07T05:23:43.561Z,64.10
2023-05-07T05:25:05.148Z,61.23
2023-05-07T05:26:35.231Z,58.95
2023-05-07T05:27:57.503Z,56.95
2023-05-07T05:29:21.062Z,57.12
2023-05-07T05:30:58.028Z,58.59
2023-05-07T05:32:21.910Z,60.36
2023-05-07T05:34:05.137Z,62.10
2023-05-07T05:35:27.366Z,64.49
2023-05-07T05:36:48.865Z,64.47
2023-05-07T05:38:22.463Z,62.40
2023-05-07T05:39:56.554Z,59.43
2023-05-07T05:41:40.338Z,57.29
2023-05-07T05:43:10.151Z,57.54
2023-05-07T05:44:34.158Z,58.93
2023-05-07T05:46:09.859Z,60.34
2023-05-07T05:47:31.521Z,62.15
2023-05-07T05:49:16.804Z,64.53
2023-05-07T05:50:52.334Z,64.55
2023-05-07T05:52:18.485Z,62.28
2023-05-07T05:53:43.588Z,59.93
2023-05-07T05:55:07.625Z,57.54
2023-05-07T05:56:53.852Z,56.69
2023-05-07T05:58:16.292Z,57.92
2023-05-07T05:59:48.318Z,59.58
2023-05-07T06:01:12.940Z,61.52
2023-05-07T06:02:34.616Z,63.65
2023-05-07T06:04:09.408Z,64.91
2023-05-07T06:05:33.428Z,62.71
2023-05-07T06:06:55.284Z,60.09
2023-05-07T06:08:19.674Z,57.41
2023-05-07T06:09:41.909Z,56.63
2023-05-07T06:11:04.095Z,57.63
2023-05-07T06:12:29.115Z,59.23
2023-05-07T06:13:53.066Z,60.91
2023-05-07T06:15:15.258Z,62.21
2023-05-07T06:16:39.938Z,64.11
2023-05-07T06:18:09.619Z,64.68
2023-05-07T06:19:39.099Z,62.12
2023-05-07T06:21:03.843Z,59.40
2023-05-07T06:22:35.968Z,56.93
2023-05-07T06:24:11.942Z,57.16
2023-05-07T06:25:34.027Z,58.31
2023-05-07T06:26:59.433Z,59.84
2023-05-07T06:28:22.428Z,61.34
2023-05-07T06:29:45.013Z,62.63
2023-05-07T06:31:09.404Z,64.53
2023-05-07T06:32:31.077Z,64.32
2023-05-07T06:34:00.484Z,61.87
2023-05-07T06:35:27.091Z,58.68
2023-05-07T06:37:09.004Z,56.84
2023-05-07T06:38:47.304Z,57.54
2023-05-07T06:40:11.218Z,58.92
2023-05-07T06:41:56.930Z,60.60
2023-05-07T06:43:33.794Z,62.58
2023-05-07T06:45:23.366Z,64.51
2023-05-07T06:46:46.100Z,63.72
2023-05-07T06:48:12.706Z,61.15
2023-05-07T06:50:09.416Z,57.83
2023-05-07T06:51:43.587Z,56.88
2023-05-07T06:53:17.013Z,58.10
2023-05-07T06:54:41.289Z,59.47
2023-05-07T06:56:22.493Z,60.78
2023-05-07T06:58:09.807Z,62.83
2023-05-07T06:59:31.559Z,64.19
2023-05-07T07:01:12.207Z,62.98
2023-05-07T07:02:44.437Z,60.19
2023-05-07T07:04:13.496Z,57.11
2023-05-07T07:05:39.368Z,56.28
2023-05-07T07:07:05.462Z,57.32
2023-05-07T07:08:30.848Z,58.61
2023-05-07T07:10:06.243Z,60.27
2023-05-07T07:11:40.046Z,62.24
2023-05-07T07:13:01.885Z,63.85
2023-05-07T07:14:24.239Z,64.08
2023-05-07T07:15:48.195Z,61.63
2023-05-07T07:17:10.077Z,59.41
2023-05-07T07:18:43.478Z,56.47
2023-05-07T07:20:19.805Z,56.27
2023-05-07T07:21:55.557Z,57.98
2023-05-07T07:23:29.542Z,59.00
2023-05-07T07:25:03.275Z,61.08
2023-05-07T07:26:25.136Z,62.21
2023-05-07T07:27:51.889Z,63.45
2023-05-07T07:29:16.360Z,64.56
2023-05-07T07:30:40.578Z,62.59
2023-05-07T07:32:02.428Z,59.97
2023-05-07T07:33:35.846Z,56.50
2023-05-07T07:35:12.148Z,55.99
2023-05-07T07:36:46.218Z,56.87
2023-05-07T07:38:11.173Z,58.33
2023-05-07T07:39:35.080Z,59.74
2023-05-07T07:41:11.165Z,61.37
2023-05-07T07:42:40.117Z,63.03
2023-05-07T07:44:15.675Z,64.26
2023-05-07T07:45:50.660Z,62.03
2023-05-07T07:47:12.318Z,59.51
2023-05-07T07:48:34.197Z,56.94
2023-05-07T07:49:56.707Z,56.40
2023-05-07T07:51:18.828Z,57.21
2023-05-07T07:52:47.908Z,58.74
2023-05-07T07:54:11.994Z,60.06
2023-05-07T07:55:36.636Z,61.45
2023-05-07T07:56:58.869Z,62.49
2023-05-07T07:58:20.678Z,64.15
2023-05-07T07:59:49.367Z,64.08
2023-05-07T08:01:13.160Z,61.87
2023-05-07T08:02:58.456Z,58.76
2023-05-07T08:04:23.495Z,56.54
2023-05-07T08:05:57.094Z,56.89
2023-05-07T08:07:21.536Z,58.12
2023-05-07T08:08:50.728Z,59.85
2023-05-07T08:10:13.618Z,60.71
2023-05-07T08:11:37.621Z,62.03
2023-05-07T08:13:10.845Z,63.56
2023-05-07T08:14:35.245Z,64.11
2023-05-07T08:15:59.508Z,61.69
2023-05-07T08:17:23.313Z,59.20
2023-05-07T08:18:45.572Z,56.85
2023-05-07T08:20:14.846Z,56.34
2023-05-07T08:21:49.000Z,57.23
2023-05-07T08:23:13.196Z,58.68
2023-05-07T08:24:37.897Z,60.18
2023-05-07T08:26:01.981Z,61.47
2023-05-07T08:27:25.813Z,62.19
2023-05-07T08:28:55.768Z,63.88
2023-05-07T08:30:18.313Z,63.80
2023-05-07T08:31:40.587Z,61.33
2023-05-07T08:35:01.655Z,55.73
2023-05-07T08:36:23.143Z,56.18
2023-05-07T08:37:49.629Z,57.29
2023-05-07T08:39:12.826Z,58.80
2023-05-07T08:40:36.840Z,59.73
2023-05-07T08:42:06.186Z,60.98
2023-05-07T08:43:35.979Z,61.55
2023-05-07T08:45:00.249Z,62.37
2023-05-07T08:46:24.020Z,64.08
2023-05-07T08:47:51.544Z,63.75
2023-05-07T08:49:16.906Z,60.86
2023-05-07T08:50:50.616Z,58.97
2023-05-07T08:52:12.331Z,56.37
2023-05-07T08:53:41.868Z,56.58
2023-05-07T08:55:07.018Z,57.47
2023-05-07T08:56:28.937Z,59.02
2023-05-07T08:57:51.021Z,60.00
2023-05-07T08:59:17.426Z,60.59
2023-05-07T09:00:41.762Z,62.00
2023-05-07T09:02:11.240Z,63.29
2023-05-07T09:03:33.566Z,63.31
2023-05-07T09:04:55.118Z,60.90
2023-05-07T09:06:29.432Z,57.26
2023-05-07T09:07:53.937Z,54.99
2023-05-07T09:09:16.983Z,55.84
2023-05-07T09:10:40.786Z,56.73
2023-05-07T09:12:04.702Z,57.85
2023-05-07T09:13:27.691Z,58.87
2023-05-07T09:14:52.434Z,60.01
2023-05-07T09:16:14.613Z,61.15
2023-05-07T09:17:39.645Z,62.13
2023-05-07T09:19:02.150Z,63.62
2023-05-07T09:20:23.838Z,63.79
2023-05-07T09:21:45.659Z,61.66
2023-05-07T09:23:10.617Z,58.86
2023-05-07T09:24:36.237Z,56.47
2023-05-07T09:26:00.881Z,56.05
2023-05-07T09:27:23.381Z,57.32
2023-05-07T09:29:04.354Z,58.99
2023-05-07T09:30:38.267Z,59.99
2023-05-07T09:32:01.981Z,60.48
2023-05-07T09:33:24.165Z,61.97
2023-05-07T09:34:48.220Z,62.99
2023-05-07T09:36:19.961Z,62.76
2023-05-07T09:37:42.054Z,60.33
2023-05-07T09:39:05.968Z,57.85
2023-05-07T09:40:28.288Z,55.35
2023-05-07T09:41:53.640Z,55.83
2023-05-07T09:43:20.191Z,56.35
2023-05-07T09:44:50.735Z,57.43
2023-05-07T09:46:14.939Z,58.46
2023-05-07T09:47:48.287Z,59.49
2023-05-07T09:49:22.050Z,60.36
2023-05-07T09:50:44.973Z,61.29
2023-05-07T09:52:11.455Z,62.17
2023-05-07T09:53:36.764Z,63.10
2023-05-07T09:55:10.133Z,62.88
2023-05-07T09:56:34.924Z,60.55
2023-05-07T09:58:10.521Z,57.18
2023-05-07T09:59:34.773Z,55.28
2023-05-07T10:00:58.637Z,55.80
2023-05-07T10:02:21.416Z,57.04
2023-05-07T10:03:49.438Z,58.24
2023-05-07T10:05:13.642Z,59.34
2023-05-07T10:06:37.899Z,60.52
2023-05-07T10:07:59.834Z,61.47
2023-05-07T10:09:31.273Z,62.01
2023-05-07T10:10:57.669Z,63.50
2023-05-07T10:12:22.104Z,63.80
2023-05-07T10:13:49.697Z,61.02
2023-05-07T10:15:11.802Z,57.78
2023-05-07T10:16:41.456Z,55.59
2023-05-07T10:18:06.268Z,55.99
2023-05-07T10:19:28.700Z,56.88
2023-05-07T10:21:04.461Z,57.96
2023-05-07T10:22:28.441Z,59.04
2023-05-07T10:23:50.217Z,60.52
2023-05-07T10:25:12.444Z,60.87
2023-05-07T10:26:36.642Z,62.17
2023-05-07T10:28:09.940Z,63.36
2023-05-07T10:29:32.620Z,63.32
2023-05-07T10:31:07.101Z,60.91
2023-05-07T10:32:33.289Z,56.42
2023-05-07T10:33:54.989Z,54.38
2023-05-07T10:35:19.400Z,55.06
2023-05-07T10:36:46.179Z,55.88
2023-05-07T10:38:17.957Z,56.50
2023-05-07T10:39:40.121Z,58.72
2023-05-07T10:41:02.150Z,59.49
2023-05-07T10:42:24.789Z,60.73
2023-05-07T10:43:47.767Z,62.54
2023-05-07T10:45:15.154Z,63.41
2023-05-07T10:46:44.966Z,60.41
2023-05-07T10:50:00.645Z,54.55
2023-05-07T10:51:24.799Z,54.26
2023-05-07T10:52:52.116Z,55.33
2023-05-07T10:54:23.781Z,56.82
2023-05-07T10:55:50.978Z,58.18
2023-05-07T10:57:16.072Z,59.07
2023-05-07T10:58:40.217Z,59.00
2023-05-07T11:00:09.975Z,59.63
2023-05-07T11:01:34.110Z,60.04
2023-05-07T11:02:56.105Z,60.65
2023-05-07T11:04:19.274Z,61.15
2023-05-07T11:06:26.537Z,61.42
2023-05-07T11:07:55.484Z,61.63
2023-05-07T11:09:17.976Z,62.31
2023-05-07T11:10:50.518Z,63.51
2023-05-07T11:12:20.323Z,62.74
2023-05-07T11:13:52.649Z,59.89
2023-05-07T11:15:38.931Z,56.07
2023-05-07T11:17:05.933Z,55.59
2023-05-07T11:18:29.802Z,55.97
2023-05-07T11:20:03.189Z,57.53
2023-05-07T11:21:33.053Z,58.46
2023-05-07T11:23:13.854Z,59.13
2023-05-07T11:24:41.920Z,59.78
2023-05-07T11:26:05.991Z,59.93
2023-05-07T11:27:32.067Z,60.68
2023-05-07T11:29:06.076Z,60.88
2023-05-07T11:30:43.800Z,62.03
2023-05-07T11:32:13.713Z,62.97
2023-05-07T11:33:40.953Z,62.77
2023-05-07T11:35:05.812Z,59.58
2023-05-07T11:36:42.256Z,55.98
2023-05-07T11:38:04.139Z,54.41
2023-05-07T11:39:34.311Z,55.23
2023-05-07T11:41:03.602Z,55.87
2023-05-07T11:42:29.441Z,56.82
2023-05-07T11:43:53.739Z,57.78
2023-05-07T11:45:27.231Z,58.64
2023-05-07T11:47:07.517Z,58.78
2023-05-07T11:48:43.306Z,59.87
2023-05-07T11:50:12.883Z,59.56
2023-05-07T11:51:47.589Z,59.75
2023-05-07T11:53:22.133Z,59.78
2023-05-07T11:57:04.058Z,60.02
2023-05-07T11:58:28.209Z,60.27
2023-05-07T11:59:52.425Z,60.24
2023-05-07T12:01:24.037Z,60.40
2023-05-07T12:02:57.633Z,60.44
2023-05-07T12:04:22.374Z,60.46
2023-05-07T12:05:44.149Z,60.72
2023-05-07T12:07:08.360Z,61.21
2023-05-07T12:08:32.276Z,61.72
2023-05-07T12:10:05.594Z,61.61
2023-05-07T12:11:41.911Z,62.34
2023-05-07T12:13:10.970Z,63.23
2023-05-07T12:14:33.676Z,62.74
2023-05-07T12:16:09.542Z,60.14
2023-05-07T12:17:43.155Z,55.65
2023-05-07T12:19:09.891Z,53.95
2023-05-07T12:20:31.719Z,53.32
2023-05-07T12:21:53.517Z,54.65
2023-05-07T12:23:15.800Z,55.15
2023-05-07T12:24:42.109Z,55.44
2023-05-07T12:26:11.360Z,55.75
2023-05-07T12:27:47.845Z,56.63
2023-05-07T12:29:16.966Z,57.18
2023-05-07T12:30:43.388Z,57.71
2023-05-07T12:32:07.132Z,58.18
2023-05-07T12:33:29.782Z,58.25
2023-05-07T12:34:56.170Z,58.46
2023-05-07T12:36:31.848Z,58.45
2023-05-07T12:38:10.169Z,59.31
2023-05-07T12:39:50.696Z,58.81
2023-05-07T12:41:26.601Z,58.80
2023-05-07T12:43:00.215Z,58.93
2023-05-07T12:44:32.249Z,58.96
2023-05-07T12:46:08.130Z,59.41
2023-05-07T12:47:34.233Z,59.68
2023-05-07T12:48:58.209Z,60.37
2023-05-07T12:50:32.501Z,60.73
2023-05-07T12:52:03.827Z,60.77
2023-05-07T12:53:30.180Z,60.98
2023-05-07T12:55:04.086Z,61.17
2023-05-07T12:56:33.303Z,61.80
2023-05-07T12:58:06.712Z,62.25
2023-05-07T12:59:30.673Z,63.72
2023-05-07T13:01:01.211Z,62.25
2023-05-07T13:02:23.052Z,58.80
2023-05-07T13:03:44.893Z,55.35
2023-05-07T13:05:06.999Z,54.37
2023-05-07T13:06:38.169Z,54.51
2023-05-07T13:08:11.781Z,55.29
2023-05-07T13:09:37.995Z,56.36
2023-05-07T13:11:05.043Z,57.32
2023-05-07T13:12:38.705Z,58.36
2023-05-07T13:14:03.284Z,59.03
2023-05-07T13:15:36.754Z,59.45
2023-05-07T13:16:58.370Z,59.57
2023-05-07T13:18:23.012Z,59.91
2023-05-07T13:19:46.932Z,60.17
2023-05-07T13:21:08.740Z,60.11
2023-05-07T13:22:30.831Z,60.45
2023-05-07T13:23:55.086Z,60.63
2023-05-07T13:25:17.281Z,60.91
2023-05-07T13:26:41.387Z,60.98
2023-05-07T13:28:10.935Z,61.25
2023-05-07T13:29:35.340Z,61.69
2023-05-07T13:30:59.558Z,61.78
2023-05-07T13:32:35.165Z,63.20
2023-05-07T13:34:09.599Z,63.63
2023-05-07T13:35:31.777Z,61.40
2023-05-07T13:36:56.486Z,57.33
2023-05-07T13:38:18.870Z,55.11
2023-05-07T13:39:41.829Z,54.02
2023-05-07T13:41:03.743Z,54.37
2023-05-07T13:42:33.228Z,55.58
2023-05-07T13:43:56.954Z,56.68
2023-05-07T13:45:19.111Z,56.27
2023-05-07T13:46:40.650Z,56.47
2023-05-07T13:48:05.109Z,56.85
2023-05-07T13:49:27.040Z,57.03
2023-05-07T13:50:50.980Z,57.13
2023-05-07T13:52:19.980Z,57.10
2023-05-07T13:53:42.182Z,57.81
2023-05-07T13:55:06.566Z,57.75
2023-05-07T13:56:29.319Z,58.22
2023-05-07T13:57:50.772Z,58.29
2023-05-07T13:59:15.508Z,58.41
2023-05-07T14:00:37.345Z,59.54
2023-05-07T14:02:10.674Z,60.05
2023-05-07T14:03:40.235Z,60.55
2023-05-07T14:05:01.801Z,61.09
2023-05-07T14:06:31.018Z,60.73
2023-05-07T14:07:57.473Z,60.82
2023-05-07T14:09:19.633Z,61.30
2023-05-07T14:10:41.374Z,61.46
2023-05-07T14:12:05.688Z,61.85
2023-05-07T14:13:41.110Z,62.69
2023-05-07T14:15:16.564Z,62.40
2023-05-07T14:16:40.963Z,59.72
2023-05-07T14:18:14.510Z,55.72
2023-05-07T14:19:38.729Z,53.94
2023-05-07T14:21:14.303Z,53.47
2023-05-07T14:22:35.943Z,54.14
2023-05-07T14:24:00.930Z,54.61
2023-05-07T14:25:25.306Z,55.31
2023-05-07T14:26:47.016Z,55.73
2023-05-07T14:28:09.154Z,56.02
2023-05-07T14:29:31.344Z,56.31
2023-05-07T14:31:05.475Z,57.47
2023-05-07T14:32:34.435Z,57.94
2023-05-07T14:33:56.197Z,57.98
2023-05-07T14:35:18.401Z,58.10
2023-05-07T14:36:42.845Z,58.13
2023-05-07T14:38:04.612Z,58.35
2023-05-07T14:39:39.571Z,58.84
2023-05-07T14:41:01.269Z,59.25
2023-05-07T14:42:23.207Z,59.78
2023-05-07T14:43:54.396Z,59.59
2023-05-07T14:45:24.173Z,59.50
2023-05-07T14:46:47.923Z,59.97
2023-05-07T14:48:10.390Z,60.07
2023-05-07T14:49:34.277Z,60.40
2023-05-07T14:51:07.777Z,60.50
2023-05-07T14:52:33.647Z,60.21
2023-05-07T14:53:57.942Z,60.28
2023-05-07T14:55:43.541Z,60.69
2023-05-07T14:57:19.545Z,60.50
2023-05-07T14:58:48.860Z,60.92
2023-05-07T15:00:13.489Z,61.43
2023-05-07T15:01:47.083Z,61.10
2023-05-07T15:03:24.970Z,60.88
2023-05-07T15:04:47.211Z,60.67
2023-05-07T15:06:11.501Z,60.41
2023-05-07T15:07:37.676Z,60.22
2023-05-07T15:08:59.518Z,60.90
2023-05-07T15:10:28.754Z,60.78
2023-05-07T15:11:55.122Z,60.64
2023-05-07T15:13:24.278Z,61.03
2023-05-07T15:14:48.269Z,60.47
2023-05-07T15:16:10.238Z,60.20
2023-05-07T15:17:31.820Z,60.00
2023-05-07T15:18:53.974Z,59.77
2023-05-07T15:20:27.520Z,60.29
2023-05-07T15:21:49.361Z,60.02
2023-05-07T15:23:12.701Z,59.32
2023-05-07T15:24:37.473Z,59.21
2023-05-07T15:26:06.316Z,59.20
2023-05-07T15:27:28.319Z,59.37
2023-05-07T15:28:50.352Z,59.10
2023-05-07T15:30:31.344Z,59.03
2023-05-07T15:31:53.190Z,59.74
2023-05-07T15:33:15.559Z,60.22
2023-05-07T15:34:39.387Z,60.41
2023-05-07T15:36:00.716Z,60.34
2023-05-07T15:37:25.451Z,60.68
2023-05-07T15:38:49.708Z,61.01
2023-05-07T15:40:13.742Z,61.57
2023-05-07T15:41:37.976Z,61.31
2023-05-07T15:43:01.696Z,61.73
2023-05-07T15:44:36.369Z,61.60
2023-05-07T15:45:58.270Z,61.81
2023-05-07T15:47:22.509Z,61.98
2023-05-07T15:48:44.536Z,62.24
2023-05-07T15:50:08.591Z,62.42
2023-05-07T15:51:44.391Z,61.50
2023-05-07T15:53:20.438Z,57.13
2023-05-07T15:54:42.397Z,54.44
2023-05-07T15:56:03.860Z,53.39
2023-05-07T15:57:25.594Z,53.52
2023-05-07T15:58:49.991Z,54.43
2023-05-07T16:00:12.490Z,55.11
2023-05-07T16:01:33.853Z,55.72
2023-05-07T16:03:07.613Z,56.55
2023-05-07T16:04:31.462Z,57.32
2023-05-07T16:06:00.656Z,56.75
2023-05-07T16:07:31.758Z,56.90
2023-05-07T16:09:00.721Z,57.63
2023-05-07T16:10:29.957Z,57.56
2023-05-07T16:11:51.790Z,57.90
2023-05-07T16:13:21.185Z,58.12
2023-05-07T16:14:42.898Z,58.61
2023-05-07T16:16:06.811Z,59.01
2023-05-07T16:17:33.429Z,59.25
2023-05-07T16:18:55.418Z,59.56
2023-05-07T16:20:19.920Z,60.29
2023-05-07T16:21:42.126Z,60.37
2023-05-07T16:23:13.368Z,60.61
2023-05-07T16:24:49.784Z,61.11
2023-05-07T16:26:18.916Z,61.83
2023-05-07T16:27:51.874Z,62.32
2023-05-07T16:29:13.392Z,62.40
2023-05-07T16:30:47.290Z,63.15
2023-05-07T16:32:20.717Z,62.61
2023-05-07T16:33:42.962Z,59.53
2023-05-07T16:35:04.198Z,55.77
2023-05-07T16:36:38.035Z,53.77
2023-05-07T16:38:13.507Z,53.62
2023-05-07T16:39:43.198Z,54.77
2023-05-07T16:41:05.804Z,55.74
2023-05-07T16:42:32.168Z,56.63
2023-05-07T16:43:58.878Z,57.50
2023-05-07T16:45:23.285Z,57.88
2023-05-07T16:46:47.944Z,58.50
2023-05-07T16:48:25.029Z,58.70
2023-05-07T16:49:53.905Z,59.57
2023-05-07T16:51:15.380Z,59.31
2023-05-07T16:52:36.933Z,58.99
2023-05-07T16:53:58.654Z,58.79
2023-05-07T16:55:20.809Z,59.23
2023-05-07T16:56:49.964Z,59.45
2023-05-07T16:58:16.257Z,59.91
2023-05-07T16:59:38.310Z,59.87
2023-05-07T17:01:11.698Z,60.27
2023-05-07T17:02:35.591Z,60.99
2023-05-07T17:04:04.805Z,61.20
2023-05-07T17:05:38.433Z,60.89
2023-05-07T17:07:00.141Z,61.22
2023-05-07T17:08:21.962Z,61.53
2023-05-07T17:09:43.654Z,61.71
2023-05-07T17:11:16.985Z,61.69
2023-05-07T17:12:38.613Z,62.08
2023-05-07T17:14:04.803Z,62.41
2023-05-07T17:15:27.232Z,63.19
2023-05-07T17:16:56.179Z,62.34
2023-05-07T17:18:18.034Z,59.67
2023-05-07T17:19:40.026Z,55.91
2023-05-07T17:21:04.165Z,54.22
2023-05-07T17:22:26.059Z,54.75
2023-05-07T17:23:50.246Z,55.55
2023-05-07T17:25:14.257Z,56.62
2023-05-07T17:26:41.358Z,57.45
2023-05-07T17:28:05.279Z,58.06
2023-05-07T17:29:27.534Z,59.01
2023-05-07T17:30:49.448Z,59.62
2023-05-07T17:32:16.011Z,60.26
2023-05-07T17:33:38.038Z,60.78
2023-05-07T17:34:59.660Z,61.56
2023-05-07T17:36:22.519Z,62.11
2023-05-07T17:37:49.083Z,62.46
2023-05-07T17:39:10.893Z,63.65
2023-05-07T17:40:44.645Z,62.81
2023-05-07T17:42:14.090Z,58.81
2023-05-07T17:43:36.062Z,55.51
2023-05-07T17:44:57.983Z,54.55
2023-05-07T17:46:19.898Z,55.14
2023-05-07T17:47:41.730Z,55.91
2023-05-07T17:49:05.725Z,57.00
2023-05-07T17:50:28.399Z,58.20
2023-05-07T17:51:54.631Z,58.86
2023-05-07T17:53:18.703Z,59.69
2023-05-07T17:54:40.818Z,60.33
2023-05-07T17:56:04.686Z,61.11
2023-05-07T17:57:27.979Z,61.57
2023-05-07T18:00:14.634Z,63.21
2023-05-07T18:01:48.289Z,62.82
2023-05-07T18:03:12.418Z,59.94
2023-05-07T18:04:34.069Z,56.43
2023-05-07T18:05:55.657Z,54.60
2023-05-07T18:07:17.411Z,54.96
2023-05-07T18:08:49.070Z,55.82
2023-05-07T18:10:13.567Z,56.91
2023-05-07T18:11:37.239Z,58.02
2023-05-07T18:12:58.646Z,58.86
2023-05-07T18:14:24.352Z,59.71
2023-05-07T18:15:46.894Z,60.51
2023-05-07T18:17:10.649Z,61.48
2023-05-07T18:18:34.625Z,62.07
2023-05-07T18:20:05.880Z,62.64
2023-05-07T18:21:28.127Z,63.80
2023-05-07T18:22:49.845Z,62.44
2023-05-07T18:24:34.894Z,59.08
2023-05-07T18:25:58.957Z,55.54
2023-05-07T18:27:23.518Z,54.88
2023-05-07T18:28:46.345Z,55.60
2023-05-07T18:30:07.763Z,56.97
2023-05-07T18:31:36.027Z,58.29
2023-05-07T18:32:59.362Z,58.97
2023-05-07T18:34:21.592Z,59.68
2023-05-07T18:35:47.657Z,60.46
2023-05-07T18:37:11.714Z,61.32
2023-05-07T18:38:48.134Z,62.39
2023-05-07T18:40:17.253Z,64.06
2023-05-07T18:41:48.758Z,63.59
2023-05-07T18:43:22.642Z,59.94
2023-05-07T18:44:44.448Z,56.66
2023-05-07T18:46:06.458Z,55.26
2023-05-07T18:47:28.417Z,55.79
2023-05-07T18:48:57.155Z,57.09
2023-05-07T18:50:21.578Z,58.43
2023-05-07T18:51:43.711Z,59.51
2023-05-07T18:53:05.023Z,60.57
2023-05-07T18:54:36.541Z,61.38
2023-05-07T18:56:06.658Z,62.17
2023-05-07T18:57:29.580Z,63.61
2023-05-07T18:58:53.808Z,64.01
2023-05-07T19:00:15.841Z,61.73
2023-05-07T19:01:37.866Z,58.66
2023-05-07T19:03:06.938Z,55.79
2023-05-07T19:04:30.190Z,55.52
2023-05-07T19:05:56.467Z,56.64
2023-05-07T19:07:18.727Z,58.00
2023-05-07T19:08:47.747Z,59.32
2023-05-07T19:10:11.985Z,60.44
2023-05-07T19:11:33.662Z,61.56
2023-05-07T19:12:57.611Z,62.53